Iowa Falls, IA

3:20 PM CST on December 09, 2019 (GMT -0600)
Iowa Falls Municipal

Weather History for KIFA - November, 2019

Change the Weather History Date:

Saturday, November 16, 2019

  Actual Average Record
Temperature  
Mean Temperature 38 °F -  
Max Temperature 46 °F 45 °F 75 °F (1953)
Min Temperature 29 °F 25 °F -2 °F (1959)
Degree Days  
Heating Degree Days 28    
Moisture  
Dew Point 29 °F    
Average Humidity 74    
Maximum Humidity 83    
Minimum Humidity 57    
Precipitation  
Precipitation 0.00 in - - ()
Sea Level Pressure  
Sea Level Pressure 30.16 in    
Wind  
Wind Speed 10 mph ()    
Max Wind Speed 20 mph    
Max Gust Speed 26 mph    
Visibility 9.3 miles    
Events      
Averages and records for this station are not official NWS values.
T = Trace of Precipitation, MM = Missing Value Source: Averaged Metar Reports

Daily Weather History Graph

Daily Weather History Graph

Search for Another Location

Airport or City:

Astronomy

Nov. 16, 2019 Rise Set
Actual Time 7:05 AM CST 4:50 PM CST
Civil Twilight 6:34 AM CST 5:20 PM CST
Nautical Twilight 6:00 AM CST 5:54 PM CST
Astronomical Twilight 5:27 AM CST 6:27 PM CST
Moon 8:21 PM CST (11/16) 11:01 AM CST (11/16)
Length of Visible Light 10h 45m
Length of Day
9h 44m
Waning Gibbous, 82% of the Moon is Illuminated
Nov 16
Waning Gibbous
Nov 19
Last Quarter
Nov 26
New
Dec 4
First Quarter
Dec 11
Full

Hourly Weather History & Observations

Time (CST) Temp. Windchill Dew Point Humidity Pressure Visibility Wind Dir Wind Speed Gust Speed Precip Events Conditions
12:15 AM 30.9 °F 23.5 °F 25.2 °F 79% 30.30 in 10.0 mi ESE 8.1 mph - N/A   Clear
12:35 AM 31.1 °F 23.7 °F 25.7 °F 80% 30.30 in 10.0 mi SE 8.1 mph - N/A   Clear
12:55 AM 31.3 °F 24.7 °F 25.7 °F 80% 30.30 in 10.0 mi SE 6.9 mph - N/A   Clear
1:15 AM 31.1 °F 24.5 °F 25.5 °F 80% 30.30 in 10.0 mi SE 6.9 mph - N/A   Clear
1:35 AM 30.6 °F 23.1 °F 24.8 °F 79% 30.30 in 10.0 mi ESE 8.1 mph - N/A   Clear
1:55 AM 30.7 °F 23.3 °F 25.3 °F 80% 30.30 in 10.0 mi ESE 8.1 mph - N/A   Clear
2:15 AM 29.3 °F 22.3 °F 24.3 °F 81% 30.30 in 10.0 mi ESE 6.9 mph - N/A   Clear
2:35 AM 29.8 °F 22.2 °F 25.2 °F 83% 30.29 in 10.0 mi SE 8.1 mph - N/A   Clear
2:55 AM 30.0 °F 21.7 °F 25.3 °F 83% 30.29 in 10.0 mi ESE 9.2 mph - N/A   Clear
3:15 AM 30.2 °F 22.6 °F 25.3 °F 82% 30.28 in 10.0 mi SE 8.1 mph - N/A   Clear
3:35 AM 30.0 °F 21.7 °F 24.8 °F 81% 30.27 in 10.0 mi SE 9.2 mph - N/A   Clear
4:15 AM 30.0 °F 21.7 °F 24.8 °F 81% 30.27 in 10.0 mi SE 9.2 mph - N/A   Clear
4:35 AM 29.8 °F 21.5 °F 24.8 °F 81% 30.27 in 10.0 mi SE 9.2 mph - N/A   Clear
4:55 AM 29.7 °F 21.3 °F 24.8 °F 82% 30.27 in 7.0 mi ESE 9.2 mph - N/A   Clear
5:15 AM 29.7 °F 20.7 °F 24.8 °F 82% 30.26 in 7.0 mi ESE 10.4 mph - N/A   Clear
5:35 AM 29.8 °F 20.9 °F 24.8 °F 81% 30.26 in 7.0 mi SE 10.4 mph - N/A   Clear
5:55 AM 29.7 °F 21.3 °F 24.8 °F 82% 30.26 in 7.0 mi SE 9.2 mph - N/A   Clear
6:15 AM 29.7 °F 21.3 °F 24.8 °F 82% 30.25 in 7.0 mi SE 9.2 mph - N/A   Clear
6:35 AM 29.3 °F 20.2 °F 24.6 °F 83% 30.26 in 7.0 mi SE 10.4 mph - N/A   Clear
6:55 AM 29.5 °F 21.1 °F 24.8 °F 83% 30.26 in 7.0 mi SE 9.2 mph - N/A   Clear
7:15 AM 30.2 °F 21.9 °F 25.5 °F 83% 30.26 in 5.0 mi SE 9.2 mph - N/A   Haze
7:35 AM 30.7 °F 23.3 °F 25.7 °F 82% 30.26 in 5.0 mi SE 8.1 mph - N/A   Haze
7:55 AM 31.1 °F 21.9 °F 26.4 °F 83% 30.26 in 5.0 mi SE 11.5 mph - N/A   Haze
8:15 AM 32.0 °F 23.0 °F 26.6 °F 80% 30.26 in 7.0 mi SE 11.5 mph - N/A   Clear
8:35 AM 32.0 °F 22.5 °F 27.1 °F 82% 30.26 in 7.0 mi SE 12.7 mph 18.4 mph N/A   Clear
8:55 AM 32.4 °F 23.0 °F 27.3 °F 82% 30.25 in 7.0 mi SE 12.7 mph - N/A   Clear
9:15 AM 32.9 °F 23.2 °F 27.5 °F 81% 30.25 in 7.0 mi SE 13.8 mph 18.4 mph N/A   Clear
9:35 AM 33.8 °F 24.3 °F 27.5 °F 78% 30.24 in 10.0 mi SE 13.8 mph - N/A   Clear
9:55 AM 34.7 °F 25.9 °F 27.9 °F 76% 30.25 in 10.0 mi SE 12.7 mph - N/A   Clear
10:15 AM 35.2 °F 26.6 °F 28.0 °F 75% 30.24 in 10.0 mi SE 12.7 mph - N/A   Clear
10:35 AM 36.5 °F 27.4 °F 28.4 °F 72% 30.24 in 10.0 mi SE 15.0 mph - N/A   Clear
10:55 AM 37.8 °F 28.6 °F 29.1 °F 71% 30.23 in 10.0 mi SSE 16.1 mph 20.7 mph N/A   Clear
11:15 AM 40.3 °F 31.6 °F 29.5 °F 65% 30.21 in 10.0 mi SE 17.3 mph - N/A   Clear
11:55 AM 41.7 °F 32.9 °F 29.3 °F 61% 30.18 in 10.0 mi SE 19.6 mph - N/A   Clear
12:15 PM 42.6 °F 34.3 °F 29.8 °F 61% 30.16 in 10.0 mi SE 18.4 mph 23.0 mph N/A   Clear
12:35 PM 42.8 °F 34.3 °F 30.0 °F 61% 30.14 in 10.0 mi SE 19.6 mph 23.0 mph N/A   Clear
12:55 PM 42.4 °F 34.4 °F 30.0 °F 61% 30.14 in 10.0 mi SE 17.3 mph - N/A   Clear
1:35 PM 43.9 °F 35.7 °F 29.8 °F 58% 30.11 in 10.0 mi SE 19.6 mph 26.5 mph N/A   Clear
1:55 PM 45.5 °F 38.9 °F 31.1 °F 57% 30.10 in 10.0 mi SE 15.0 mph 20.7 mph N/A   Clear
2:15 PM 46.4 °F 39.8 °F 31.8 °F 57% 30.09 in 10.0 mi SE 16.1 mph - N/A   Clear
2:35 PM 46.4 °F 40.7 °F 32.0 °F 57% 30.08 in 10.0 mi SE 12.7 mph - N/A   Clear
2:55 PM 44.8 °F 38.7 °F 31.1 °F 59% 30.09 in 10.0 mi SE 12.7 mph 20.7 mph N/A   Clear
3:15 PM 43.9 °F 38.3 °F 31.5 °F 62% 30.08 in 10.0 mi SE 10.4 mph - N/A   Clear
3:35 PM 43.2 °F 37.4 °F 32.0 °F 65% 30.07 in 10.0 mi ESE 10.4 mph - N/A   Clear
3:55 PM 43.2 °F 36.2 °F 32.0 °F 65% 30.05 in 10.0 mi ESE 13.8 mph 18.4 mph N/A   Clear
4:15 PM 43.0 °F 36.4 °F 32.0 °F 65% 30.05 in 10.0 mi SE 12.7 mph - N/A   Clear
4:35 PM 42.8 °F 37.0 °F 32.0 °F 66% 30.06 in 10.0 mi SE 10.4 mph - N/A   Clear
4:55 PM 42.1 °F 35.2 °F 31.3 °F 66% 30.05 in 10.0 mi SE 12.7 mph - N/A   Clear
5:15 PM 41.5 °F 34.6 °F 31.1 °F 66% 30.04 in 10.0 mi SE 12.7 mph - N/A   Clear
5:35 PM 41.0 °F 33.9 °F 31.8 °F 70% 30.05 in 10.0 mi SE 12.7 mph - N/A   Clear
5:55 PM 40.6 °F 33.4 °F 32.0 °F 71% 30.05 in 10.0 mi SE 12.7 mph - N/A   Clear
6:15 PM 40.3 °F 33.4 °F 31.8 °F 72% 30.05 in 10.0 mi SE 11.5 mph - N/A   Clear
6:35 PM 39.9 °F 32.1 °F 32.0 °F 73% 30.05 in 10.0 mi SE 13.8 mph - N/A   Clear
6:55 PM 40.1 °F 32.0 °F 32.0 °F 73% 30.05 in 10.0 mi SE 15.0 mph 20.7 mph N/A   Clear
7:15 PM 40.3 °F 31.6 °F 32.0 °F 72% 30.04 in 10.0 mi SE 17.3 mph - N/A   Clear
7:35 PM 40.1 °F 31.3 °F 32.0 °F 73% 30.04 in 10.0 mi SE 17.3 mph 20.7 mph N/A   Clear
7:55 PM 39.6 °F 31.7 °F 32.0 °F 74% 30.05 in 10.0 mi SE 13.8 mph - N/A   Clear
8:15 PM 38.8 °F 31.2 °F 31.8 °F 76% 30.05 in 10.0 mi SE 12.7 mph - N/A   Clear
8:35 PM 38.7 °F 30.9 °F 31.8 °F 76% 30.06 in 10.0 mi SSE 12.7 mph - N/A   Clear
8:55 PM 39.4 °F 32.3 °F 32.0 °F 75% 30.07 in 10.0 mi SSE 11.5 mph - N/A   Clear
9:35 PM 38.8 °F 30.8 °F 32.0 °F 76% 30.06 in 10.0 mi SSE 13.8 mph - N/A   Clear
9:55 PM 38.8 °F 30.4 °F 31.8 °F 76% 30.06 in 10.0 mi SSE 15.0 mph 19.6 mph N/A   Clear
10:15 PM 38.7 °F 30.5 °F 32.0 °F 77% 30.05 in 10.0 mi SSE 13.8 mph 19.6 mph N/A   Clear
10:35 PM 38.7 °F 30.1 °F 31.8 °F 76% 30.04 in 10.0 mi SSE 15.0 mph 18.4 mph N/A   Scattered Clouds
10:55 PM 38.7 °F 30.1 °F 31.8 °F 76% 30.04 in 10.0 mi SSE 15.0 mph - N/A   Scattered Clouds
11:15 PM 38.3 °F 30.1 °F 31.6 °F 77% 30.04 in 10.0 mi SSE 13.8 mph - N/A   Scattered Clouds
11:35 PM 38.3 °F 30.9 °F 31.6 °F 77% 30.03 in 10.0 mi SSE 11.5 mph - N/A   Mostly Cloudy
11:55 PM 38.3 °F 30.1 °F 31.6 °F 77% 30.03 in 10.0 mi SSE 13.8 mph - N/A   Overcast